sensor_id;sensor_type;location;lat;lon;timestamp;P1;durP1;ratioP1;P2;durP2;ratioP2
56680;SDS011;42558;52.388;13.390;2024-02-15T00:02:27;16.91;;;11.59;;
56680;SDS011;42558;52.388;13.390;2024-02-15T00:04:57;16.34;;;9.88;;
56680;SDS011;42558;52.388;13.390;2024-02-15T00:07:27;15.77;;;10.64;;
56680;SDS011;42558;52.388;13.390;2024-02-15T00:09:57;15.96;;;11.59;;
56680;SDS011;42558;52.388;13.390;2024-02-15T00:12:30;16.34;;;11.21;;
56680;SDS011;42558;52.388;13.390;2024-02-15T00:15:00;17.86;;;10.64;;
56680;SDS011;42558;52.388;13.390;2024-02-15T00:17:30;16.72;;;10.83;;
56680;SDS011;42558;52.388;13.390;2024-02-15T00:20:03;17.10;;;11.21;;
56680;SDS011;42558;52.388;13.390;2024-02-15T00:22:40;16.72;;;11.97;;
56680;SDS011;42558;52.388;13.390;2024-02-15T00:25:10;13.30;;;10.07;;
56680;SDS011;42558;52.388;13.390;2024-02-15T00:27:40;15.96;;;11.40;;
56680;SDS011;42558;52.388;13.390;2024-02-15T00:30:11;15.77;;;10.64;;
56680;SDS011;42558;52.388;13.390;2024-02-15T00:32:42;16.15;;;11.02;;
56680;SDS011;42558;52.388;13.390;2024-02-15T00:35:12;16.34;;;10.07;;
56680;SDS011;42558;52.388;13.390;2024-02-15T00:37:43;17.48;;;11.21;;
56680;SDS011;42558;52.388;13.390;2024-02-15T00:40:14;14.82;;;10.64;;
56680;SDS011;42558;52.388;13.390;2024-02-15T00:42:44;15.20;;;11.02;;
56680;SDS011;42558;52.388;13.390;2024-02-15T00:45:14;14.63;;;10.83;;
56680;SDS011;42558;52.388;13.390;2024-02-15T00:47:44;16.53;;;11.02;;
56680;SDS011;42558;52.388;13.390;2024-02-15T00:50:14;16.91;;;10.45;;
56680;SDS011;42558;52.388;13.390;2024-02-15T00:52:44;15.58;;;9.88;;
56680;SDS011;42558;52.388;13.390;2024-02-15T00:55:14;17.48;;;10.83;;
56680;SDS011;42558;52.388;13.390;2024-02-15T00:57:44;17.48;;;11.59;;
56680;SDS011;42558;52.388;13.390;2024-02-15T01:00:15;17.29;;;11.40;;
56680;SDS011;42558;52.388;13.390;2024-02-15T01:02:45;16.91;;;11.59;;
56680;SDS011;42558;52.388;13.390;2024-02-15T01:05:15;14.25;;;9.31;;
56680;SDS011;42558;52.388;13.390;2024-02-15T01:07:45;17.29;;;11.40;;
56680;SDS011;42558;52.388;13.390;2024-02-15T01:10:17;20.33;;;12.16;;
56680;SDS011;42558;52.388;13.390;2024-02-15T01:12:45;18.05;;;12.16;;
56680;SDS011;42558;52.388;13.390;2024-02-15T01:15:15;17.86;;;11.40;;
56680;SDS011;42558;52.388;13.390;2024-02-15T01:17:48;19.19;;;12.54;;
56680;SDS011;42558;52.388;13.390;2024-02-15T01:20:18;20.52;;;13.11;;
56680;SDS011;42558;52.388;13.390;2024-02-15T01:22:50;17.48;;;11.59;;
56680;SDS011;42558;52.388;13.390;2024-02-15T01:25:21;18.24;;;11.97;;
56680;SDS011;42558;52.388;13.390;2024-02-15T01:27:51;16.15;;;11.40;;
56680;SDS011;42558;52.388;13.390;2024-02-15T01:30:22;19.76;;;12.92;;
56680;SDS011;42558;52.388;13.390;2024-02-15T01:32:52;19.38;;;12.73;;
56680;SDS011;42558;52.388;13.390;2024-02-15T01:35:22;21.66;;;13.49;;
56680;SDS011;42558;52.388;13.390;2024-02-15T01:37:52;19.38;;;13.87;;
56680;SDS011;42558;52.388;13.390;2024-02-15T01:40:22;20.33;;;13.30;;
56680;SDS011;42558;52.388;13.390;2024-02-15T01:42:51;18.43;;;12.16;;
56680;SDS011;42558;52.388;13.390;2024-02-15T01:45:21;20.52;;;14.63;;
56680;SDS011;42558;52.388;13.390;2024-02-15T01:47:52;22.61;;;14.25;;
56680;SDS011;42558;52.388;13.390;2024-02-15T01:50:24;23.56;;;14.25;;
56680;SDS011;42558;52.388;13.390;2024-02-15T01:52:57;21.28;;;14.25;;
56680;SDS011;42558;52.388;13.390;2024-02-15T01:55:28;23.18;;;14.82;;
56680;SDS011;42558;52.388;13.390;2024-02-15T01:57:58;22.23;;;16.34;;
56680;SDS011;42558;52.388;13.390;2024-02-15T02:00:30;24.32;;;14.82;;
56680;SDS011;42558;52.388;13.390;2024-02-15T02:03:01;23.94;;;16.15;;
56680;SDS011;42558;52.388;13.390;2024-02-15T02:05:33;23.37;;;14.82;;
56680;SDS011;42558;52.388;13.390;2024-02-15T02:08:03;21.85;;;15.01;;
56680;SDS011;42558;52.388;13.390;2024-02-15T02:10:39;24.13;;;16.53;;
56680;SDS011;42558;52.388;13.390;2024-02-15T02:13:10;24.51;;;15.01;;
56680;SDS011;42558;52.388;13.390;2024-02-15T02:15:41;20.90;;;15.01;;
56680;SDS011;42558;52.388;13.390;2024-02-15T02:18:11;18.81;;;14.44;;
56680;SDS011;42558;52.388;13.390;2024-02-15T02:20:41;23.18;;;16.91;;
56680;SDS011;42558;52.388;13.390;2024-02-15T02:23:15;24.51;;;16.72;;
56680;SDS011;42558;52.388;13.390;2024-02-15T02:25:48;23.94;;;15.58;;
56680;SDS011;42558;52.388;13.390;2024-02-15T02:28:19;24.70;;;16.15;;
56680;SDS011;42558;52.388;13.390;2024-02-15T02:30:48;20.90;;;14.82;;
56680;SDS011;42558;52.388;13.390;2024-02-15T02:33:19;22.80;;;15.77;;
56680;SDS011;42558;52.388;13.390;2024-02-15T02:35:52;27.17;;;17.29;;
56680;SDS011;42558;52.388;13.390;2024-02-15T02:38:22;23.18;;;15.39;;
56680;SDS011;42558;52.388;13.390;2024-02-15T02:40:55;25.08;;;17.67;;
56680;SDS011;42558;52.388;13.390;2024-02-15T02:43:25;25.46;;;17.10;;
56680;SDS011;42558;52.388;13.390;2024-02-15T02:45:55;23.37;;;15.96;;
56680;SDS011;42558;52.388;13.390;2024-02-15T02:48:25;25.65;;;16.72;;
56680;SDS011;42558;52.388;13.390;2024-02-15T02:50:57;23.94;;;15.58;;
56680;SDS011;42558;52.388;13.390;2024-02-15T02:53:27;24.70;;;16.91;;
56680;SDS011;42558;52.388;13.390;2024-02-15T02:55:57;25.46;;;16.72;;
56680;SDS011;42558;52.388;13.390;2024-02-15T02:58:27;25.46;;;17.10;;
56680;SDS011;42558;52.388;13.390;2024-02-15T03:00:58;28.31;;;16.72;;
56680;SDS011;42558;52.388;13.390;2024-02-15T03:03:30;25.46;;;16.72;;
56680;SDS011;42558;52.388;13.390;2024-02-15T03:06:00;26.41;;;17.48;;
56680;SDS011;42558;52.388;13.390;2024-02-15T03:08:31;25.46;;;16.15;;
56680;SDS011;42558;52.388;13.390;2024-02-15T03:11:00;27.74;;;17.67;;
56680;SDS011;42558;52.388;13.390;2024-02-15T03:13:29;28.12;;;18.43;;
56680;SDS011;42558;52.388;13.390;2024-02-15T03:15:58;23.18;;;15.96;;
56680;SDS011;42558;52.388;13.390;2024-02-15T03:18:25;24.13;;;17.29;;
56680;SDS011;42558;52.388;13.390;2024-02-15T03:20:54;25.46;;;17.10;;
56680;SDS011;42558;52.388;13.390;2024-02-15T03:23:24;26.22;;;18.81;;
56680;SDS011;42558;52.388;13.390;2024-02-15T03:25:54;25.65;;;17.67;;
56680;SDS011;42558;52.388;13.390;2024-02-15T03:28:23;26.41;;;17.86;;
56680;SDS011;42558;52.388;13.390;2024-02-15T03:30:54;28.50;;;17.86;;
56680;SDS011;42558;52.388;13.390;2024-02-15T03:33:25;27.17;;;18.05;;
56680;SDS011;42558;52.388;13.390;2024-02-15T03:35:58;26.98;;;17.67;;
56680;SDS011;42558;52.388;13.390;2024-02-15T03:38:30;26.79;;;17.29;;
56680;SDS011;42558;52.388;13.390;2024-02-15T03:41:01;28.31;;;16.34;;
56680;SDS011;42558;52.388;13.390;2024-02-15T03:43:32;23.75;;;16.15;;
56680;SDS011;42558;52.388;13.390;2024-02-15T03:46:03;30.21;;;18.05;;
56680;SDS011;42558;52.388;13.390;2024-02-15T03:48:33;25.46;;;17.29;;
56680;SDS011;42558;52.388;13.390;2024-02-15T03:51:03;25.27;;;16.34;;
56680;SDS011;42558;52.388;13.390;2024-02-15T03:53:33;26.22;;;17.48;;
56680;SDS011;42558;52.388;13.390;2024-02-15T03:56:04;26.79;;;17.29;;
56680;SDS011;42558;52.388;13.390;2024-02-15T03:58:34;26.79;;;17.48;;
56680;SDS011;42558;52.388;13.390;2024-02-15T04:01:06;25.46;;;17.48;;
56680;SDS011;42558;52.388;13.390;2024-02-15T04:03:38;26.98;;;16.91;;
56680;SDS011;42558;52.388;13.390;2024-02-15T04:06:08;27.74;;;18.24;;
56680;SDS011;42558;52.388;13.390;2024-02-15T04:08:39;28.12;;;18.43;;
56680;SDS011;42558;52.388;13.390;2024-02-15T04:11:09;29.07;;;16.72;;
56680;SDS011;42558;52.388;13.390;2024-02-15T04:13:39;27.93;;;16.34;;
56680;SDS011;42558;52.388;13.390;2024-02-15T04:16:09;28.88;;;17.29;;
56680;SDS011;42558;52.388;13.390;2024-02-15T04:18:39;29.64;;;17.67;;
56680;SDS011;42558;52.388;13.390;2024-02-15T04:21:11;28.31;;;17.86;;
56680;SDS011;42558;52.388;13.390;2024-02-15T04:23:42;25.08;;;16.53;;
56680;SDS011;42558;52.388;13.390;2024-02-15T04:26:13;24.70;;;16.72;;
56680;SDS011;42558;52.388;13.390;2024-02-15T04:28:43;27.17;;;16.72;;
56680;SDS011;42558;52.388;13.390;2024-02-15T04:31:13;26.79;;;16.91;;
56680;SDS011;42558;52.388;13.390;2024-02-15T04:33:44;26.79;;;16.91;;
56680;SDS011;42558;52.388;13.390;2024-02-15T04:36:18;29.07;;;17.67;;
56680;SDS011;42558;52.388;13.390;2024-02-15T04:38:53;24.32;;;15.39;;
56680;SDS011;42558;52.388;13.390;2024-02-15T04:41:23;26.41;;;17.67;;
56680;SDS011;42558;52.388;13.390;2024-02-15T04:43:53;31.16;;;16.91;;
56680;SDS011;42558;52.388;13.390;2024-02-15T04:46:23;26.41;;;16.72;;
56680;SDS011;42558;52.388;13.390;2024-02-15T04:48:54;31.54;;;17.67;;
56680;SDS011;42558;52.388;13.390;2024-02-15T04:51:25;27.74;;;17.48;;
56680;SDS011;42558;52.388;13.390;2024-02-15T04:53:57;26.98;;;17.29;;
56680;SDS011;42558;52.388;13.390;2024-02-15T04:56:27;26.41;;;15.39;;
56680;SDS011;42558;52.388;13.390;2024-02-15T04:58:58;28.12;;;16.91;;
56680;SDS011;42558;52.388;13.390;2024-02-15T05:01:28;29.26;;;16.72;;
56680;SDS011;42558;52.388;13.390;2024-02-15T05:04:02;27.74;;;16.91;;
56680;SDS011;42558;52.388;13.390;2024-02-15T05:06:37;30.02;;;17.86;;
56680;SDS011;42558;52.388;13.390;2024-02-15T05:09:08;31.16;;;19.76;;
56680;SDS011;42558;52.388;13.390;2024-02-15T05:11:40;32.87;;;18.62;;
56680;SDS011;42558;52.388;13.390;2024-02-15T05:14:17;28.69;;;17.10;;
56680;SDS011;42558;52.388;13.390;2024-02-15T05:16:49;31.35;;;19.00;;
56680;SDS011;42558;52.388;13.390;2024-02-15T05:19:19;28.50;;;18.43;;
56680;SDS011;42558;52.388;13.390;2024-02-15T05:21:49;30.59;;;18.62;;
56680;SDS011;42558;52.388;13.390;2024-02-15T05:24:20;29.07;;;17.29;;
56680;SDS011;42558;52.388;13.390;2024-02-15T05:26:50;28.31;;;16.53;;
56680;SDS011;42558;52.388;13.390;2024-02-15T05:29:21;30.02;;;18.43;;
56680;SDS011;42558;52.388;13.390;2024-02-15T05:31:53;31.16;;;17.48;;
56680;SDS011;42558;52.388;13.390;2024-02-15T05:34:24;33.25;;;17.86;;
56680;SDS011;42558;52.388;13.390;2024-02-15T05:36:56;29.83;;;18.05;;
56680;SDS011;42558;52.388;13.390;2024-02-15T05:39:26;29.64;;;18.24;;
56680;SDS011;42558;52.388;13.390;2024-02-15T05:41:56;29.07;;;16.72;;
56680;SDS011;42558;52.388;13.390;2024-02-15T05:44:30;30.40;;;18.24;;
56680;SDS011;42558;52.388;13.390;2024-02-15T05:47:00;28.69;;;17.29;;
56680;SDS011;42558;52.388;13.390;2024-02-15T05:49:30;27.36;;;16.53;;
56680;SDS011;42558;52.388;13.390;2024-02-15T05:52:00;26.98;;;16.72;;
56680;SDS011;42558;52.388;13.390;2024-02-15T05:54:30;28.88;;;16.53;;
56680;SDS011;42558;52.388;13.390;2024-02-15T05:56:58;27.74;;;18.05;;
56680;SDS011;42558;52.388;13.390;2024-02-15T05:59:34;30.40;;;18.05;;
56680;SDS011;42558;52.388;13.390;2024-02-15T06:02:01;31.54;;;18.43;;
56680;SDS011;42558;52.388;13.390;2024-02-15T06:04:31;26.60;;;15.58;;
56680;SDS011;42558;52.388;13.390;2024-02-15T06:06:59;30.21;;;16.91;;
56680;SDS011;42558;52.388;13.390;2024-02-15T06:09:30;30.02;;;17.86;;
56680;SDS011;42558;52.388;13.390;2024-02-15T06:12:03;27.93;;;17.29;;
56680;SDS011;42558;52.388;13.390;2024-02-15T06:14:34;28.12;;;17.67;;
56680;SDS011;42558;52.388;13.390;2024-02-15T06:17:04;31.54;;;17.48;;
56680;SDS011;42558;52.388;13.390;2024-02-15T06:19:34;28.88;;;17.10;;
56680;SDS011;42558;52.388;13.390;2024-02-15T06:22:04;27.17;;;17.48;;
56680;SDS011;42558;52.388;13.390;2024-02-15T06:24:34;29.45;;;18.81;;
56680;SDS011;42558;52.388;13.390;2024-02-15T06:27:05;31.92;;;18.62;;
56680;SDS011;42558;52.388;13.390;2024-02-15T06:29:35;30.02;;;18.43;;
56680;SDS011;42558;52.388;13.390;2024-02-15T06:32:24;31.92;;;18.43;;
56680;SDS011;42558;52.388;13.390;2024-02-15T06:35:15;30.59;;;18.81;;
56680;SDS011;42558;52.388;13.390;2024-02-15T06:38:04;29.26;;;17.48;;
56680;SDS011;42558;52.388;13.390;2024-02-15T06:40:53;36.48;;;19.00;;
56680;SDS011;42558;52.388;13.390;2024-02-15T06:43:23;32.11;;;18.24;;
56680;SDS011;42558;52.388;13.390;2024-02-15T06:45:54;32.49;;;18.81;;
56680;SDS011;42558;52.388;13.390;2024-02-15T06:48:24;31.73;;;19.00;;
56680;SDS011;42558;52.388;13.390;2024-02-15T06:50:56;34.58;;;19.38;;
56680;SDS011;42558;52.388;13.390;2024-02-15T06:53:26;35.53;;;21.66;;
56680;SDS011;42558;52.388;13.390;2024-02-15T06:55:57;30.02;;;19.00;;
56680;SDS011;42558;52.388;13.390;2024-02-15T06:58:27;34.96;;;20.33;;
56680;SDS011;42558;52.388;13.390;2024-02-15T07:00:57;31.16;;;19.76;;
56680;SDS011;42558;52.388;13.390;2024-02-15T07:03:28;30.78;;;17.86;;
56680;SDS011;42558;52.388;13.390;2024-02-15T07:05:59;30.97;;;19.00;;
56680;SDS011;42558;52.388;13.390;2024-02-15T07:08:31;34.39;;;18.81;;
56680;SDS011;42558;52.388;13.390;2024-02-15T07:11:02;33.06;;;18.24;;
56680;SDS011;42558;52.388;13.390;2024-02-15T07:13:33;29.45;;;17.86;;
56680;SDS011;42558;52.388;13.390;2024-02-15T07:16:00;32.68;;;17.86;;
56680;SDS011;42558;52.388;13.390;2024-02-15T07:18:31;30.97;;;18.43;;
56680;SDS011;42558;52.388;13.390;2024-02-15T07:20:59;30.97;;;17.86;;
56680;SDS011;42558;52.388;13.390;2024-02-15T07:23:30;29.45;;;17.67;;
56680;SDS011;42558;52.388;13.390;2024-02-15T07:26:03;30.40;;;18.24;;
56680;SDS011;42558;52.388;13.390;2024-02-15T07:28:34;28.50;;;18.05;;
56680;SDS011;42558;52.388;13.390;2024-02-15T07:31:04;32.30;;;19.00;;
56680;SDS011;42558;52.388;13.390;2024-02-15T07:33:34;28.69;;;17.10;;
56680;SDS011;42558;52.388;13.390;2024-02-15T07:36:05;27.74;;;17.48;;
56680;SDS011;42558;52.388;13.390;2024-02-15T07:38:36;28.69;;;16.91;;
56680;SDS011;42558;52.388;13.390;2024-02-15T07:41:06;29.64;;;17.48;;
56680;SDS011;42558;52.388;13.390;2024-02-15T07:43:35;31.35;;;17.48;;
56680;SDS011;42558;52.388;13.390;2024-02-15T07:46:05;26.98;;;17.67;;
56680;SDS011;42558;52.388;13.390;2024-02-15T07:48:36;28.31;;;16.53;;
56680;SDS011;42558;52.388;13.390;2024-02-15T07:51:06;27.17;;;15.96;;
56680;SDS011;42558;52.388;13.390;2024-02-15T07:53:39;27.74;;;16.91;;
56680;SDS011;42558;52.388;13.390;2024-02-15T07:56:10;28.31;;;17.48;;
56680;SDS011;42558;52.388;13.390;2024-02-15T07:58:42;31.73;;;15.96;;
56680;SDS011;42558;52.388;13.390;2024-02-15T08:01:22;26.03;;;16.72;;
56680;SDS011;42558;52.388;13.390;2024-02-15T08:03:54;27.55;;;16.15;;
56680;SDS011;42558;52.388;13.390;2024-02-15T08:06:25;28.12;;;16.72;;
56680;SDS011;42558;52.388;13.390;2024-02-15T08:08:56;27.93;;;17.10;;
56680;SDS011;42558;52.388;13.390;2024-02-15T08:11:27;25.27;;;15.96;;
56680;SDS011;42558;52.388;13.390;2024-02-15T08:13:57;27.36;;;15.77;;
56680;SDS011;42558;52.388;13.390;2024-02-15T08:16:29;30.21;;;16.15;;
56680;SDS011;42558;52.388;13.390;2024-02-15T08:18:59;28.12;;;16.34;;
56680;SDS011;42558;52.388;13.390;2024-02-15T08:21:32;25.84;;;14.63;;
56680;SDS011;42558;52.388;13.390;2024-02-15T08:24:04;22.61;;;13.87;;
56680;SDS011;42558;52.388;13.390;2024-02-15T08:26:39;25.46;;;15.39;;
56680;SDS011;42558;52.388;13.390;2024-02-15T08:29:11;24.70;;;15.58;;
56680;SDS011;42558;52.388;13.390;2024-02-15T08:31:41;25.84;;;14.82;;
56680;SDS011;42558;52.388;13.390;2024-02-15T08:34:11;26.41;;;14.63;;
56680;SDS011;42558;52.388;13.390;2024-02-15T08:36:44;26.22;;;14.63;;
56680;SDS011;42558;52.388;13.390;2024-02-15T08:39:14;25.65;;;15.20;;
56680;SDS011;42558;52.388;13.390;2024-02-15T08:41:45;24.51;;;14.44;;
56680;SDS011;42558;52.388;13.390;2024-02-15T08:44:14;25.08;;;14.63;;
56680;SDS011;42558;52.388;13.390;2024-02-15T08:46:42;24.89;;;14.63;;
56680;SDS011;42558;52.388;13.390;2024-02-15T08:49:11;27.55;;;15.96;;
56680;SDS011;42558;52.388;13.390;2024-02-15T08:51:43;22.23;;;14.82;;
56680;SDS011;42558;52.388;13.390;2024-02-15T08:54:13;24.51;;;14.63;;
56680;SDS011;42558;52.388;13.390;2024-02-15T08:56:43;24.13;;;13.11;;
56680;SDS011;42558;52.388;13.390;2024-02-15T08:59:13;22.04;;;12.92;;
56680;SDS011;42558;52.388;13.390;2024-02-15T09:01:45;22.99;;;13.49;;
56680;SDS011;42558;52.388;13.390;2024-02-15T09:04:15;21.66;;;12.92;;
56680;SDS011;42558;52.388;13.390;2024-02-15T09:06:45;23.37;;;14.06;;
56680;SDS011;42558;52.388;13.390;2024-02-15T09:09:16;20.52;;;11.21;;
56680;SDS011;42558;52.388;13.390;2024-02-15T09:11:46;23.94;;;13.11;;
56680;SDS011;42558;52.388;13.390;2024-02-15T09:14:16;22.80;;;12.92;;
56680;SDS011;42558;52.388;13.390;2024-02-15T09:16:46;23.75;;;13.11;;
56680;SDS011;42558;52.388;13.390;2024-02-15T09:19:16;21.85;;;12.92;;
56680;SDS011;42558;52.388;13.390;2024-02-15T09:21:47;17.86;;;11.02;;
56680;SDS011;42558;52.388;13.390;2024-02-15T09:24:17;17.67;;;11.02;;
56680;SDS011;42558;52.388;13.390;2024-02-15T09:26:47;22.23;;;11.40;;
56680;SDS011;42558;52.388;13.390;2024-02-15T09:29:16;17.67;;;10.83;;
56680;SDS011;42558;52.388;13.390;2024-02-15T09:31:47;17.10;;;11.02;;
56680;SDS011;42558;52.388;13.390;2024-02-15T09:34:17;17.10;;;11.02;;
56680;SDS011;42558;52.388;13.390;2024-02-15T09:36:48;17.67;;;10.64;;
56680;SDS011;42558;52.388;13.390;2024-02-15T09:39:18;19.19;;;11.59;;
56680;SDS011;42558;52.388;13.390;2024-02-15T09:41:48;22.42;;;11.78;;
56680;SDS011;42558;52.388;13.390;2024-02-15T09:44:26;19.38;;;11.02;;
56680;SDS011;42558;52.388;13.390;2024-02-15T09:47:04;17.29;;;10.45;;
56680;SDS011;42558;52.388;13.390;2024-02-15T09:49:36;18.62;;;10.64;;
56680;SDS011;42558;52.388;13.390;2024-02-15T09:52:09;18.24;;;11.02;;
56680;SDS011;42558;52.388;13.390;2024-02-15T09:54:46;18.62;;;11.21;;
56680;SDS011;42558;52.388;13.390;2024-02-15T09:57:17;16.15;;;10.64;;
56680;SDS011;42558;52.388;13.390;2024-02-15T09:59:48;17.29;;;10.26;;
56680;SDS011;42558;52.388;13.390;2024-02-15T10:02:18;16.91;;;9.88;;
56680;SDS011;42558;52.388;13.390;2024-02-15T10:04:48;22.04;;;11.21;;
56680;SDS011;42558;52.388;13.390;2024-02-15T10:07:20;17.29;;;10.83;;
56680;SDS011;42558;52.388;13.390;2024-02-15T10:09:50;23.94;;;10.64;;
56680;SDS011;42558;52.388;13.390;2024-02-15T10:12:21;19.57;;;11.78;;
56680;SDS011;42558;52.388;13.390;2024-02-15T10:14:52;15.96;;;8.74;;
56680;SDS011;42558;52.388;13.390;2024-02-15T10:17:22;17.10;;;10.83;;
56680;SDS011;42558;52.388;13.390;2024-02-15T10:20:06;17.10;;;10.64;;
56680;SDS011;42558;52.388;13.390;2024-02-15T10:22:40;15.39;;;10.26;;
56680;SDS011;42558;52.388;13.390;2024-02-15T10:25:13;16.15;;;10.26;;
56680;SDS011;42558;52.388;13.390;2024-02-15T10:27:44;18.05;;;9.88;;
56680;SDS011;42558;52.388;13.390;2024-02-15T10:30:18;18.62;;;9.69;;
56680;SDS011;42558;52.388;13.390;2024-02-15T10:32:49;14.82;;;10.26;;
56680;SDS011;42558;52.388;13.390;2024-02-15T10:35:20;17.10;;;10.26;;
56680;SDS011;42558;52.388;13.390;2024-02-15T10:37:51;16.72;;;9.88;;
56680;SDS011;42558;52.388;13.390;2024-02-15T10:40:22;15.39;;;9.88;;
56680;SDS011;42558;52.388;13.390;2024-02-15T10:42:51;14.44;;;9.88;;
56680;SDS011;42558;52.388;13.390;2024-02-15T10:45:19;15.39;;;9.50;;
56680;SDS011;42558;52.388;13.390;2024-02-15T10:47:48;14.82;;;8.74;;
56680;SDS011;42558;52.388;13.390;2024-02-15T10:50:16;15.77;;;9.88;;
56680;SDS011;42558;52.388;13.390;2024-02-15T10:52:54;15.01;;;9.31;;
56680;SDS011;42558;52.388;13.390;2024-02-15T10:55:38;15.58;;;9.69;;
56680;SDS011;42558;52.388;13.390;2024-02-15T10:58:19;13.87;;;8.55;;
56680;SDS011;42558;52.388;13.390;2024-02-15T11:00:51;16.72;;;8.93;;
56680;SDS011;42558;52.388;13.390;2024-02-15T11:03:27;13.68;;;8.74;;
56680;SDS011;42558;52.388;13.390;2024-02-15T11:06:06;16.72;;;8.74;;
56680;SDS011;42558;52.388;13.390;2024-02-15T11:08:38;14.06;;;7.98;;
56680;SDS011;42558;52.388;13.390;2024-02-15T11:11:09;13.49;;;8.55;;
56680;SDS011;42558;52.388;13.390;2024-02-15T11:13:41;15.01;;;8.74;;
56680;SDS011;42558;52.388;13.390;2024-02-15T11:16:44;12.73;;;7.79;;
56680;SDS011;42558;52.388;13.390;2024-02-15T11:22:09;14.06;;;8.74;;
56680;SDS011;42558;52.388;13.390;2024-02-15T11:24:51;16.53;;;8.55;;
56680;SDS011;42558;52.388;13.390;2024-02-15T11:27:26;13.30;;;7.41;;
56680;SDS011;42558;52.388;13.390;2024-02-15T11:29:59;11.78;;;7.22;;
56680;SDS011;42558;52.388;13.390;2024-02-15T11:32:50;12.54;;;7.03;;
56680;SDS011;42558;52.388;13.390;2024-02-15T11:35:24;14.06;;;7.60;;
56680;SDS011;42558;52.388;13.390;2024-02-15T11:37:57;11.02;;;7.03;;
56680;SDS011;42558;52.388;13.390;2024-02-15T11:46:26;12.54;;;7.60;;
56680;SDS011;42558;52.388;13.390;2024-02-15T11:49:00;11.97;;;6.65;;
56680;SDS011;42558;52.388;13.390;2024-02-15T11:51:33;11.40;;;6.65;;
56680;SDS011;42558;52.388;13.390;2024-02-15T11:54:13;13.30;;;6.65;;
56680;SDS011;42558;52.388;13.390;2024-02-15T11:56:54;10.64;;;6.08;;
56680;SDS011;42558;52.388;13.390;2024-02-15T11:59:45;11.59;;;6.46;;
56680;SDS011;42558;52.388;13.390;2024-02-15T12:02:36;11.97;;;7.41;;
56680;SDS011;42558;52.388;13.390;2024-02-15T12:05:25;11.59;;;6.46;;
56680;SDS011;42558;52.388;13.390;2024-02-15T12:08:14;11.97;;;6.46;;
56680;SDS011;42558;52.388;13.390;2024-02-15T12:11:03;10.83;;;7.03;;
56680;SDS011;42558;52.388;13.390;2024-02-15T12:13:53;10.26;;;6.08;;
56680;SDS011;42558;52.388;13.390;2024-02-15T12:16:40;9.50;;;5.89;;
56680;SDS011;42558;52.388;13.390;2024-02-15T12:19:28;9.12;;;5.51;;
56680;SDS011;42558;52.388;13.390;2024-02-15T12:21:59;8.55;;;4.94;;
56680;SDS011;42558;52.388;13.390;2024-02-15T12:24:31;11.40;;;5.13;;
56680;SDS011;42558;52.388;13.390;2024-02-15T12:27:02;10.83;;;5.89;;
56680;SDS011;42558;52.388;13.390;2024-02-15T12:29:33;9.50;;;4.94;;
56680;SDS011;42558;52.388;13.390;2024-02-15T12:32:05;9.50;;;5.51;;
56680;SDS011;42558;52.388;13.390;2024-02-15T12:34:35;9.69;;;4.56;;
56680;SDS011;42558;52.388;13.390;2024-02-15T12:37:08;9.50;;;4.94;;
56680;SDS011;42558;52.388;13.390;2024-02-15T12:39:39;10.83;;;4.94;;
56680;SDS011;42558;52.388;13.390;2024-02-15T12:42:10;9.31;;;4.56;;
56680;SDS011;42558;52.388;13.390;2024-02-15T12:44:44;9.12;;;5.13;;
56680;SDS011;42558;52.388;13.390;2024-02-15T12:47:22;9.12;;;4.37;;
56680;SDS011;42558;52.388;13.390;2024-02-15T12:49:54;9.69;;;4.94;;
56680;SDS011;42558;52.388;13.390;2024-02-15T12:52:37;9.69;;;5.13;;
56680;SDS011;42558;52.388;13.390;2024-02-15T12:55:14;9.31;;;5.51;;
56680;SDS011;42558;52.388;13.390;2024-02-15T12:57:53;7.79;;;4.75;;
56680;SDS011;42558;52.388;13.390;2024-02-15T13:00:27;8.74;;;4.94;;
56680;SDS011;42558;52.388;13.390;2024-02-15T13:03:05;9.12;;;5.51;;
56680;SDS011;42558;52.388;13.390;2024-02-15T13:05:38;9.50;;;5.32;;
56680;SDS011;42558;52.388;13.390;2024-02-15T13:08:10;9.12;;;4.56;;
56680;SDS011;42558;52.388;13.390;2024-02-15T13:10:44;11.02;;;4.75;;
56680;SDS011;42558;52.388;13.390;2024-02-15T13:13:14;9.88;;;4.94;;
56680;SDS011;42558;52.388;13.390;2024-02-15T13:15:45;7.41;;;4.37;;
56680;SDS011;42558;52.388;13.390;2024-02-15T13:18:21;10.83;;;4.18;;
56680;SDS011;42558;52.388;13.390;2024-02-15T13:20:52;11.59;;;4.56;;
56680;SDS011;42558;52.388;13.390;2024-02-15T13:23:21;8.93;;;3.99;;
56680;SDS011;42558;52.388;13.390;2024-02-15T13:25:55;7.22;;;3.80;;
56680;SDS011;42558;52.388;13.390;2024-02-15T13:28:34;6.65;;;3.23;;
56680;SDS011;42558;52.388;13.390;2024-02-15T13:31:03;8.36;;;3.42;;
56680;SDS011;42558;52.388;13.390;2024-02-15T13:33:30;9.69;;;4.37;;
56680;SDS011;42558;52.388;13.390;2024-02-15T13:36:02;7.79;;;3.80;;
56680;SDS011;42558;52.388;13.390;2024-02-15T13:38:33;9.69;;;4.37;;
56680;SDS011;42558;52.388;13.390;2024-02-15T13:41:03;8.55;;;4.56;;
56680;SDS011;42558;52.388;13.390;2024-02-15T13:43:33;8.93;;;4.56;;
56680;SDS011;42558;52.388;13.390;2024-02-15T13:46:04;9.88;;;5.13;;
56680;SDS011;42558;52.388;13.390;2024-02-15T13:48:34;9.88;;;5.32;;
56680;SDS011;42558;52.388;13.390;2024-02-15T13:51:04;9.50;;;4.56;;
56680;SDS011;42558;52.388;13.390;2024-02-15T13:53:34;7.79;;;4.56;;
56680;SDS011;42558;52.388;13.390;2024-02-15T13:56:05;9.69;;;4.75;;
56680;SDS011;42558;52.388;13.390;2024-02-15T13:58:36;8.55;;;4.37;;
56680;SDS011;42558;52.388;13.390;2024-02-15T14:01:06;11.78;;;5.89;;
56680;SDS011;42558;52.388;13.390;2024-02-15T14:03:36;8.36;;;4.75;;
56680;SDS011;42558;52.388;13.390;2024-02-15T14:06:06;8.55;;;5.13;;
56680;SDS011;42558;52.388;13.390;2024-02-15T14:08:36;7.98;;;4.94;;
56680;SDS011;42558;52.388;13.390;2024-02-15T14:11:06;9.12;;;4.94;;
56680;SDS011;42558;52.388;13.390;2024-02-15T14:13:36;9.69;;;5.13;;
56680;SDS011;42558;52.388;13.390;2024-02-15T14:16:06;11.78;;;4.75;;
56680;SDS011;42558;52.388;13.390;2024-02-15T14:18:37;9.69;;;4.75;;
56680;SDS011;42558;52.388;13.390;2024-02-15T14:21:08;9.12;;;5.32;;
56680;SDS011;42558;52.388;13.390;2024-02-15T14:23:40;8.93;;;4.94;;
56680;SDS011;42558;52.388;13.390;2024-02-15T14:26:10;8.55;;;4.94;;
56680;SDS011;42558;52.388;13.390;2024-02-15T14:28:40;9.50;;;4.75;;
56680;SDS011;42558;52.388;13.390;2024-02-15T14:31:11;10.26;;;4.75;;
56680;SDS011;42558;52.388;13.390;2024-02-15T14:34:00;10.07;;;4.56;;
56680;SDS011;42558;52.388;13.390;2024-02-15T14:36:30;10.45;;;4.56;;
56680;SDS011;42558;52.388;13.390;2024-02-15T14:39:00;8.36;;;3.99;;
56680;SDS011;42558;52.388;13.390;2024-02-15T14:41:30;14.63;;;4.75;;
56680;SDS011;42558;52.388;13.390;2024-02-15T14:44:02;10.26;;;4.56;;
56680;SDS011;42558;52.388;13.390;2024-02-15T14:46:32;9.69;;;4.56;;
56680;SDS011;42558;52.388;13.390;2024-02-15T14:49:05;9.12;;;4.18;;
56680;SDS011;42558;52.388;13.390;2024-02-15T14:51:36;10.07;;;4.37;;